Time;durP1;ratioP1;P1;durP2;ratioP2;P2;SDS_P1;SDS_P2;PMS_P1;PMS_P2;Temp;Humidity;BMP_temperature;BMP_pressure;BME280_temperature;BME280_humidity;BME280_pressure;Samples;Min_cycle;Max_cycle;Signal;HPM_P1;HPM_P2
2022/11/27 00:01:18;;;;;;;18.15;10.25;;;;;;;-3.88;66.27;101549.84;5031306;28;20101;-56
2022/11/27 00:03:44;;;;;;;18.50;7.75;;;;;;;-3.49;64.95;101545.75;5032237;28;20053;-61
2022/11/27 00:06:14;;;;;;;20.88;11.38;;;;;;;-3.67;65.65;101543.03;5034107;28;20389;-59
2022/11/27 00:08:41;;;;;;;20.67;10.63;;;;;;;-3.60;65.37;101552.66;5044761;28;20090;-61
2022/11/27 00:11:15;;;;;;;19.67;9.70;;;;;;;-3.63;65.41;101532.56;5058126;28;20065;-60
2022/11/27 00:13:41;;;;;;;14.43;7.28;;;;;;;-3.40;64.97;101541.41;5058862;28;20036;-62
2022/11/27 00:16:08;;;;;;;19.15;10.25;;;;;;;-3.67;64.98;101543.88;5058022;28;20029;-59
2022/11/27 00:18:34;;;;;;;18.80;9.57;;;;;;;-3.52;64.39;101547.47;5058184;28;20028;-61
2022/11/27 00:21:09;;;;;;;22.35;11.77;;;;;;;-3.68;65.11;101547.38;5037555;28;20030;-61
2022/11/27 00:23:35;;;;;;;19.42;10.18;;;;;;;-3.88;66.12;101534.16;5040239;28;20061;-56
2022/11/27 00:26:01;;;;;;;21.55;11.35;;;;;;;-3.65;65.54;101550.00;5038711;28;20471;-60
2022/11/27 00:28:27;;;;;;;17.17;9.02;;;;;;;-3.86;65.72;101511.50;5054275;28;20385;-59
2022/11/27 00:30:58;;;;;;;19.75;10.60;;;;;;;-3.78;66.04;101537.72;5057796;28;20032;-59
2022/11/27 00:33:23;;;;;;;18.33;9.80;;;;;;;-3.56;64.41;101554.41;5058604;28;20348;-60
2022/11/27 00:35:49;;;;;;;14.07;8.23;;;;;;;-3.76;65.57;101549.94;5050475;28;20033;-58
2022/11/27 00:38:14;;;;;;;17.90;9.82;;;;;;;-3.72;65.37;101547.34;5038651;28;20033;-57
2022/11/27 00:40:39;;;;;;;16.05;9.48;;;;;;;-3.61;64.71;101551.78;5037502;28;20171;-57
2022/11/27 00:43:05;;;;;;;17.88;9.80;;;;;;;-3.62;64.60;101554.38;5042302;28;20116;-62
2022/11/27 00:45:30;;;;;;;17.00;9.88;;;;;;;-3.74;65.59;101555.19;5052951;28;20041;-61
2022/11/27 00:47:56;;;;;;;16.75;9.40;;;;;;;-3.86;65.08;101534.16;5038741;28;20033;-60
2022/11/27 00:50:21;;;;;;;21.02;9.48;;;;;;;-3.83;65.84;101549.91;5038379;28;20447;-60
2022/11/27 00:52:47;;;;;;;12.77;7.05;;;;;;;-3.76;65.49;101555.16;5038634;28;20072;-61
2022/11/27 00:55:14;;;;;;;19.08;9.88;;;;;;;-4.18;65.53;101507.78;5037737;28;20054;-58
2022/11/27 00:57:39;;;;;;;16.35;9.05;;;;;;;-3.94;65.82;101542.84;5037873;28;20037;-58
2022/11/27 01:00:06;;;;;;;17.67;9.80;;;;;;;-3.95;66.21;101546.31;5041893;28;20391;-61
2022/11/27 01:02:31;;;;;;;13.80;7.82;;;;;;;-3.84;65.25;101564.72;5040852;28;20029;-56
2022/11/27 01:04:57;;;;;;;12.73;7.35;;;;;;;-4.13;66.03;101515.66;5037020;28;20040;-58
2022/11/27 01:07:22;;;;;;;17.40;9.45;;;;;;;-3.99;66.57;101548.88;5044894;28;20384;-59
2022/11/27 01:09:47;;;;;;;16.10;9.02;;;;;;;-3.97;66.25;101555.91;5058238;28;20025;-57
2022/11/27 01:12:13;;;;;;;16.50;9.48;;;;;;;-4.04;66.74;101554.09;5055804;28;20025;-58
2022/11/27 01:14:38;;;;;;;16.23;9.38;;;;;;;-4.09;67.40;101555.81;5038759;28;20056;-68
2022/11/27 01:17:04;;;;;;;10.10;4.93;;;;;;;-3.55;65.88;101542.22;5037707;28;20029;-56
2022/11/27 01:19:29;;;;;;;17.90;9.55;;;;;;;-3.79;65.92;101543.81;5034549;28;20029;-59
2022/11/27 01:21:55;;;;;;;15.10;8.85;;;;;;;-3.79;65.92;101544.69;5035300;28;20118;-58
2022/11/27 01:24:20;;;;;;;15.77;9.20;;;;;;;-3.82;66.22;101549.03;5051748;28;20039;-60
2022/11/27 01:26:46;;;;;;;18.00;9.75;;;;;;;-3.72;66.18;101545.59;5052064;28;20056;-61
2022/11/27 01:29:11;;;;;;;19.27;10.15;;;;;;;-3.83;66.23;101542.06;5035038;28;20436;-62
2022/11/27 01:31:37;;;;;;;17.63;9.73;;;;;;;-4.09;66.43;101513.97;5043625;28;20428;-59
2022/11/27 01:34:07;;;;;;;16.02;9.63;;;;;;;-3.84;66.51;101554.25;5054936;28;20051;-61
2022/11/27 01:36:34;;;;;;;15.82;8.90;;;;;;;-3.88;66.89;101547.25;5054885;28;20159;-61
2022/11/27 01:39:00;;;;;;;14.02;5.82;;;;;;;-3.61;66.45;101546.56;5052573;28;20021;-59
2022/11/27 01:41:34;;;;;;;18.40;9.55;;;;;;;-3.70;66.34;101551.72;5050819;28;20033;-62
2022/11/27 01:44:01;;;;;;;18.30;9.07;;;;;;;-3.88;67.28;101549.84;5054975;28;20051;-62
2022/11/27 01:46:29;;;;;;;13.00;7.20;;;;;;;-3.79;66.81;101556.91;5054667;28;20132;-59
2022/11/27 01:49:10;;;;;;;16.77;8.63;;;;;;;-3.89;67.53;101530.66;5054628;28;20083;-58
2022/11/27 01:52:01;;;;;;;19.70;9.52;;;;;;;-3.81;67.05;101541.19;5052345;28;20124;-68
2022/11/27 01:54:49;;;;;;;16.42;9.57;;;;;;;-4.05;67.38;101519.19;5031166;28;20362;-61
2022/11/27 01:57:27;;;;;;;12.38;6.60;;;;;;;-3.48;66.60;101557.97;5034383;28;20509;-61
2022/11/27 01:59:56;;;;;;;17.08;8.45;;;;;;;-3.65;66.68;101560.47;5051143;28;20482;-56
2022/11/27 02:02:21;;;;;;;14.90;7.45;;;;;;;-3.72;67.14;101558.69;5054513;28;20091;-58
2022/11/27 02:04:47;;;;;;;13.88;6.28;;;;;;;-3.85;66.34;101525.47;5046559;28;20026;-58
2022/11/27 02:07:12;;;;;;;18.02;9.05;;;;;;;-3.91;67.62;101542.84;5034246;28;20037;-61
2022/11/27 02:09:39;;;;;;;16.70;9.38;;;;;;;-4.09;69.10;101547.97;5034659;28;20025;-61
2022/11/27 02:12:26;;;;;;;16.88;8.48;;;;;;;-4.01;69.35;101563.69;5033052;28;20476;-61
2022/11/27 02:15:17;;;;;;;14.18;7.20;;;;;;;-3.68;67.83;101554.34;5034429;28;20522;-61
2022/11/27 02:18:31;;;;;;;19.13;8.93;;;;;;;-3.67;67.70;101556.97;5035255;28;20033;-59
2022/11/27 02:21:18;;;;;;;17.90;9.15;;;;;;;-3.68;68.15;101552.59;5032216;28;20254;-60
2022/11/27 02:23:53;;;;;;;14.63;8.15;;;;;;;-3.58;67.78;101550.06;5031930;28;20034;-63
2022/11/27 02:26:36;;;;;;;17.58;9.10;;;;;;;-3.52;67.38;101552.69;5033350;28;20514;-56
2022/11/27 02:29:05;;;;;;;9.93;4.32;;;;;;;-3.23;66.47;101549.34;5033516;28;20067;-59
2022/11/27 02:31:40;;;;;;;18.77;9.50;;;;;;;-3.38;66.99;101552.78;5037919;28;20316;-56
2022/11/27 02:34:24;;;;;;;17.25;9.23;;;;;;;-3.49;67.40;101557.94;5053775;28;20474;-56
2022/11/27 02:37:29;;;;;;;19.30;9.00;;;;;;;-3.52;67.76;101561.41;5038926;28;20438;-59
2022/11/27 02:40:15;;;;;;;18.58;9.50;;;;;;;-3.49;67.76;101571.94;5033651;28;20423;-63
2022/11/27 02:42:49;;;;;;;17.58;8.90;;;;;;;-3.77;67.96;101534.22;5049332;28;20037;-62
2022/11/27 02:45:26;;;;;;;16.63;8.50;;;;;;;-3.58;67.71;101571.84;5053368;28;20052;-68
2022/11/27 02:47:54;;;;;;;18.00;9.20;;;;;;;-3.89;68.23;101535.03;5052997;28;20115;-61
2022/11/27 02:50:22;;;;;;;18.65;8.77;;;;;;;-3.69;68.48;101561.31;5053616;28;20036;-61
2022/11/27 02:52:51;;;;;;;15.50;8.20;;;;;;;-3.49;67.20;101566.69;5052524;28;20033;-56
2022/11/27 02:55:21;;;;;;;16.92;8.35;;;;;;;-3.64;67.94;101558.75;5053347;28;20029;-60
2022/11/27 02:57:49;;;;;;;18.40;8.45;;;;;;;-3.46;67.30;101586.78;5052584;28;20033;-57
2022/11/27 03:00:15;;;;;;;15.70;9.20;;;;;;;-3.55;67.55;101577.13;5046470;28;20045;-66
2022/11/27 03:02:49;;;;;;;17.65;8.43;;;;;;;-3.62;67.62;101570.09;5033587;28;20026;-57
2022/11/27 03:05:18;;;;;;;12.50;7.07;;;;;;;-3.58;68.02;101577.09;5033312;28;20108;-63
2022/11/27 03:08:00;;;;;;;16.70;8.65;;;;;;;-3.33;67.04;101577.25;5034516;28;20036;-61
2022/11/27 03:10:34;;;;;;;13.93;7.55;;;;;;;-3.36;66.32;101577.22;5033107;28;20030;-62
2022/11/27 03:13:02;;;;;;;11.63;6.90;;;;;;;-3.49;67.02;101573.66;5033178;28;20086;-62
2022/11/27 03:15:53;;;;;;;13.77;8.05;;;;;;;-3.58;66.80;101565.75;5032130;28;20104;-61
2022/11/27 03:18:29;;;;;;;13.65;7.75;;;;;;;-3.80;68.08;101534.22;5033314;28;20460;-61
2022/11/27 03:21:04;;;;;;;16.83;8.20;;;;;;;-3.39;67.16;101564.97;5037487;28;20052;-61
2022/11/27 03:23:29;;;;;;;15.63;8.45;;;;;;;-3.64;67.30;101533.41;5032745;28;20467;-61
2022/11/27 03:25:55;;;;;;;13.70;7.53;;;;;;;-3.27;66.47;101576.41;5032011;28;20120;-56
2022/11/27 03:28:21;;;;;;;13.27;6.05;;;;;;;-3.10;65.72;101569.50;5033015;28;20033;-58
2022/11/27 03:30:46;;;;;;;16.00;8.40;;;;;;;-3.10;65.58;101568.59;5032951;28;20033;-63
2022/11/27 03:33:12;;;;;;;14.02;7.43;;;;;;;-3.29;66.38;101578.13;5047822;28;20452;-60
2022/11/27 03:35:38;;;;;;;14.38;7.95;;;;;;;-3.47;67.05;101570.19;5050405;28;20436;-58
2022/11/27 03:38:03;;;;;;;13.90;8.43;;;;;;;-3.50;66.12;101524.78;5031971;28;20504;-60
2022/11/27 03:40:42;;;;;;;15.00;7.93;;;;;;;-3.44;66.08;101545.75;5041459;28;20107;-56
2022/11/27 03:43:21;;;;;;;13.90;7.78;;;;;;;-3.22;65.95;101575.56;5052623;28;20052;-64
2022/11/27 03:46:05;;;;;;;14.70;7.82;;;;;;;-3.33;66.97;101567.66;5052411;28;20045;-66
2022/11/27 03:48:49;;;;;;;13.05;7.00;;;;;;;-3.24;66.35;101560.69;5052795;28;20108;-62
2022/11/27 03:52:05;;;;;;;15.13;7.82;;;;;;;-3.12;65.95;101579.09;5051765;28;20436;-61
2022/11/27 03:54:51;;;;;;;9.23;4.87;;;;;;;-3.14;65.96;101572.94;5049701;28;20028;-61
2022/11/27 03:57:23;;;;;;;13.45;7.43;;;;;;;-3.44;66.38;101548.38;5037767;28;20037;-62
2022/11/27 03:59:54;;;;;;;11.40;5.97;;;;;;;-3.48;67.27;101557.09;5052263;28;20061;-62
2022/11/27 04:02:30;;;;;;;11.45;6.38;;;;;;;-3.08;65.68;101566.88;5052260;28;20043;-57
2022/11/27 04:04:55;;;;;;;11.35;7.13;;;;;;;-3.14;65.82;101564.22;5052510;28;20029;-59
2022/11/27 04:07:21;;;;;;;13.45;7.55;;;;;;;-3.19;65.29;101574.69;5052338;28;20091;-54
2022/11/27 04:09:46;;;;;;;12.90;6.60;;;;;;;-3.08;65.18;101578.25;5052494;28;20079;-55
2022/11/27 04:12:11;;;;;;;13.25;6.65;;;;;;;-3.24;65.63;101574.69;5046549;28;20094;-59
2022/11/27 04:14:37;;;;;;;12.52;6.43;;;;;;;-3.24;66.22;101569.44;5032977;28;20030;-52
2022/11/27 04:17:02;;;;;;;10.13;5.60;;;;;;;-3.07;65.14;101576.47;5052282;28;20021;-58
2022/11/27 04:19:28;;;;;;;12.77;6.75;;;;;;;-3.21;66.15;101571.19;5037640;28;20029;-59
2022/11/27 04:21:53;;;;;;;11.02;6.82;;;;;;;-3.27;66.70;101572.03;5032341;28;20045;-57
2022/11/27 04:24:19;;;;;;;10.57;6.18;;;;;;;-3.28;67.15;101569.41;5032408;28;20030;-68
2022/11/27 04:26:44;;;;;;;14.90;6.60;;;;;;;-3.00;65.70;101586.16;5031663;28;20108;-61
2022/11/27 04:29:10;;;;;;;9.50;5.75;;;;;;;-3.09;65.70;101560.78;5032216;28;20037;-58
2022/11/27 04:31:35;;;;;;;11.05;6.55;;;;;;;-3.33;65.75;101535.31;5031315;28;20025;-56
2022/11/27 04:34:01;;;;;;;11.93;6.75;;;;;;;-3.03;64.90;101576.50;5043592;28;20056;-61
2022/11/27 04:36:26;;;;;;;13.10;6.60;;;;;;;-3.13;65.92;101568.59;5052202;28;20029;-59
2022/11/27 04:38:51;;;;;;;9.85;5.32;;;;;;;-3.10;66.11;101576.47;5052438;28;20040;-61
2022/11/27 04:41:17;;;;;;;9.63;5.45;;;;;;;-3.16;66.10;101577.31;5052425;28;20098;-61
2022/11/27 04:43:42;;;;;;;11.95;6.90;;;;;;;-3.26;66.95;101584.25;5043367;28;20467;-53
2022/11/27 04:46:08;;;;;;;10.50;6.53;;;;;;;-3.26;66.51;101578.16;5031028;28;20493;-65
2022/11/27 04:48:33;;;;;;;10.73;6.53;;;;;;;-3.07;66.20;101581.72;5031114;28;20479;-65
2022/11/27 04:50:58;;;;;;;9.65;5.35;;;;;;;-2.94;65.93;101587.88;5031210;28;20029;-64
2022/11/27 04:53:24;;;;;;;11.40;4.90;;;;;;;-2.94;65.63;101590.50;5034133;28;20043;-61
2022/11/27 04:55:51;;;;;;;11.18;6.53;;;;;;;-3.08;66.38;101583.47;5054201;28;20037;-55
2022/11/27 04:58:16;;;;;;;11.45;6.35;;;;;;;-3.10;66.63;101579.97;5054766;28;20215;-59
2022/11/27 05:00:42;;;;;;;10.80;6.03;;;;;;;-3.05;66.70;101579.97;5055359;28;20507;-57
2022/11/27 05:03:07;;;;;;;9.70;4.72;;;;;;;-2.83;66.10;101586.19;5054774;28;20094;-62
2022/11/27 05:05:32;;;;;;;10.85;6.07;;;;;;;-2.81;65.36;101589.69;5055695;28;20057;-57
2022/11/27 05:07:58;;;;;;;10.82;6.05;;;;;;;-2.96;66.46;101587.00;5036825;28;20033;-62
2022/11/27 05:10:23;;;;;;;11.40;6.18;;;;;;;-2.92;66.82;101588.75;5049100;28;20329;-63
2022/11/27 05:12:49;;;;;;;10.32;6.13;;;;;;;-2.75;66.15;101592.34;5055645;28;20044;-63
2022/11/27 05:15:14;;;;;;;11.48;6.20;;;;;;;-2.74;66.16;101599.31;5055351;28;20049;-63
2022/11/27 05:17:40;;;;;;;9.52;5.82;;;;;;;-2.76;65.77;101589.72;5054030;28;20033;-62
2022/11/27 05:20:06;;;;;;;12.57;6.53;;;;;;;-2.89;66.00;101573.06;5055034;28;20340;-63
2022/11/27 05:22:32;;;;;;;6.47;4.05;;;;;;;-2.80;66.23;101588.81;5042922;28;20034;-62
2022/11/27 05:24:57;;;;;;;11.15;5.93;;;;;;;-2.83;67.14;101590.56;5035333;28;20039;-63
2022/11/27 05:27:22;;;;;;;12.25;6.47;;;;;;;-2.80;67.23;101594.06;5035279;28;20467;-62
2022/11/27 05:29:48;;;;;;;11.10;5.88;;;;;;;-2.79;66.67;101597.53;5040543;28;20021;-62
2022/11/27 05:32:13;;;;;;;9.85;5.68;;;;;;;-2.82;67.14;101603.69;5054888;28;20337;-62
2022/11/27 05:34:39;;;;;;;8.68;4.47;;;;;;;-2.56;66.09;101610.75;5054860;28;20112;-61
2022/11/27 05:37:04;;;;;;;11.52;6.18;;;;;;;-2.79;67.56;101594.94;5053774;28;20427;-62
2022/11/27 05:39:30;;;;;;;13.57;6.78;;;;;;;-2.82;67.93;101611.53;5048521;28;20070;-62
2022/11/27 05:41:55;;;;;;;7.60;4.32;;;;;;;-2.80;67.57;101617.66;5034177;28;20102;-62
2022/11/27 05:44:21;;;;;;;10.20;5.43;;;;;;;-2.78;67.85;101612.41;5035467;28;20116;-62
2022/11/27 05:46:46;;;;;;;12.02;6.40;;;;;;;-2.91;68.05;101601.00;5038493;28;20119;-63
2022/11/27 05:49:14;;;;;;;9.93;5.55;;;;;;;-3.03;68.54;101597.47;5020469;28;20052;-62
2022/11/27 05:51:40;;;;;;;9.85;5.28;;;;;;;-2.86;68.77;101609.78;5054868;28;20087;-62
2022/11/27 05:54:06;;;;;;;13.90;6.50;;;;;;;-3.08;69.28;101608.78;5046340;28;20036;-62
2022/11/27 05:56:31;;;;;;;11.70;6.40;;;;;;;-3.10;69.99;101607.91;5034523;28;20033;-62
2022/11/27 05:58:57;;;;;;;7.20;4.07;;;;;;;-2.86;69.05;101617.66;5046193;28;20367;-63
2022/11/27 06:01:23;;;;;;;11.75;6.43;;;;;;;-2.84;68.89;101612.41;5053389;28;20045;-62
2022/11/27 06:03:48;;;;;;;11.13;5.00;;;;;;;-2.84;68.89;101613.28;5053978;28;20037;-63
2022/11/27 06:06:17;;;;;;;11.20;5.40;;;;;;;-2.95;69.58;101594.00;5031916;28;20044;-62
2022/11/27 06:08:43;;;;;;;11.25;5.95;;;;;;;-2.80;69.24;101609.78;5032954;28;20044;-62
2022/11/27 06:11:15;;;;;;;14.45;7.20;;;;;;;-2.89;69.42;101612.41;5034362;28;20026;-59
2022/11/27 06:13:41;;;;;;;12.65;7.03;;;;;;;-2.85;69.63;101613.25;5035185;28;20341;-63
2022/11/27 06:16:12;;;;;;;13.73;6.13;;;;;;;-2.81;69.37;101602.81;5033243;28;20098;-64
2022/11/27 06:18:37;;;;;;;13.48;7.10;;;;;;;-2.68;68.96;101608.06;5034546;28;20037;-61
2022/11/27 06:21:06;;;;;;;13.98;7.82;;;;;;;-2.77;69.87;101603.69;5032783;28;20029;-61
2022/11/27 06:23:31;;;;;;;13.73;7.57;;;;;;;-2.61;69.55;101604.63;5042693;28;20033;-64
2022/11/27 06:25:57;;;;;;;10.88;6.28;;;;;;;-2.69;69.31;101580.09;5053211;28;20036;-62
2022/11/27 06:28:22;;;;;;;12.80;7.00;;;;;;;-2.54;68.70;101598.50;5053650;28;20080;-61
2022/11/27 06:30:47;;;;;;;13.13;7.22;;;;;;;-2.76;68.94;101580.09;5053816;28;20029;-58
2022/11/27 06:33:13;;;;;;;11.07;5.55;;;;;;;-2.42;68.88;101618.66;5053902;28;20032;-60
2022/11/27 06:35:38;;;;;;;14.75;7.80;;;;;;;-2.54;68.80;101611.63;5046373;28;20025;-62
2022/11/27 06:38:04;;;;;;;14.27;7.00;;;;;;;-2.47;69.12;101602.88;5033418;28;20059;-60
2022/11/27 06:40:29;;;;;;;10.32;5.65;;;;;;;-2.35;68.64;101611.66;5036003;28;20028;-72
2022/11/27 06:42:55;;;;;;;11.02;6.22;;;;;;;-2.28;68.53;101597.69;5053975;28;20705;-61
2022/11/27 06:45:21;;;;;;;15.48;7.28;;;;;;;-2.20;67.70;101616.91;5053154;28;20053;-58
2022/11/27 06:47:46;;;;;;;14.55;7.88;;;;;;;-2.33;68.38;101599.44;5043123;28;20025;-60
2022/11/27 06:50:12;;;;;;;15.02;7.82;;;;;;;-2.34;68.20;101616.91;5035340;28;20033;-57
2022/11/27 06:52:37;;;;;;;9.55;5.47;;;;;;;-2.19;67.49;101618.66;5044638;28;20037;-54
2022/11/27 06:55:03;;;;;;;13.52;7.82;;;;;;;-2.23;67.49;101610.81;5039958;28;20428;-61
2022/11/27 06:57:28;;;;;;;16.77;7.50;;;;;;;-2.22;67.66;101623.91;5041459;28;20060;-60
2022/11/27 06:59:53;;;;;;;12.55;6.90;;;;;;;-2.21;67.60;101630.91;5053339;28;20470;-59
2022/11/27 07:02:19;;;;;;;14.27;7.32;;;;;;;-2.05;66.01;101637.09;5045170;28;20033;-59
2022/11/27 07:04:44;;;;;;;11.65;6.25;;;;;;;-2.07;66.65;101633.56;5034485;28;20034;-59
2022/11/27 07:07:10;;;;;;;11.00;6.97;;;;;;;-2.27;67.26;101627.44;5040417;28;20032;-60
2022/11/27 07:09:35;;;;;;;15.70;7.18;;;;;;;-2.19;67.39;101639.66;5043196;28;20036;-56
2022/11/27 07:12:04;;;;;;;11.90;6.82;;;;;;;-2.15;67.14;101618.69;5044279;28;20029;-57
2022/11/27 07:14:30;;;;;;;10.65;6.53;;;;;;;-2.19;67.13;101610.78;5045894;28;20037;-55
2022/11/27 07:16:55;;;;;;;11.55;7.03;;;;;;;-2.05;67.27;101626.59;5034659;28;20076;-54
2022/11/27 07:19:21;;;;;;;13.10;6.80;;;;;;;-1.92;66.67;101622.22;5033799;28;20526;-56
2022/11/27 07:21:46;;;;;;;12.25;7.47;;;;;;;-1.83;66.14;101620.47;5038146;28;20028;-55
2022/11/27 07:24:12;;;;;;;11.70;7.28;;;;;;;-1.84;67.01;101630.06;5046079;28;20038;-59
2022/11/27 07:26:38;;;;;;;11.32;6.45;;;;;;;-1.76;66.72;101628.34;5034771;28;20041;-61
2022/11/27 07:29:03;;;;;;;11.52;6.88;;;;;;;-1.84;67.13;101611.69;5037106;28;20404;-57
2022/11/27 07:31:29;;;;;;;12.73;7.07;;;;;;;-1.72;66.76;101623.94;5041884;28;20104;-56
2022/11/27 07:33:55;;;;;;;11.13;5.70;;;;;;;-1.43;65.56;101628.31;5033030;28;20034;-57
2022/11/27 07:36:26;;;;;;;10.73;6.60;;;;;;;-1.57;65.87;101602.03;5031697;28;20098;-59
2022/11/27 07:38:52;;;;;;;12.57;6.60;;;;;;;-1.63;65.54;101621.31;5032892;28;20029;-53
2022/11/27 07:41:18;;;;;;;13.52;7.20;;;;;;;-1.56;65.62;101618.69;5035159;28;20383;-55
2022/11/27 07:43:44;;;;;;;8.88;4.10;;;;;;;-1.50;66.02;101610.78;5049405;28;20372;-52
2022/11/27 07:46:19;;;;;;;11.50;6.93;;;;;;;-1.48;65.67;101616.91;5049506;28;20060;-53
2022/11/27 07:48:45;;;;;;;11.20;7.15;;;;;;;-1.79;65.77;101585.44;5052638;28;20090;-55
2022/11/27 07:51:14;;;;;;;13.32;7.35;;;;;;;-1.66;66.31;101613.44;5037690;28;20029;-51
2022/11/27 07:53:40;;;;;;;12.80;7.65;;;;;;;-1.66;66.96;101613.44;5031731;28;20529;-57
2022/11/27 07:56:06;;;;;;;13.95;7.57;;;;;;;-1.38;65.57;101623.91;5045382;28;20025;-50
2022/11/27 07:58:32;;;;;;;12.90;6.60;;;;;;;-1.41;66.01;101621.28;5051545;28;20033;-54
2022/11/27 08:00:58;;;;;;;11.77;7.18;;;;;;;-1.37;65.94;101612.53;5051783;28;20040;-55
2022/11/27 08:03:23;;;;;;;15.23;7.55;;;;;;;-1.33;65.81;101610.75;5049876;28;20036;-54
2022/11/27 08:05:49;;;;;;;12.77;7.30;;;;;;;-1.25;65.40;101616.88;5050900;28;20029;-54
2022/11/27 08:08:14;;;;;;;14.25;7.20;;;;;;;-1.37;66.88;101615.16;5047489;28;20136;-58
2022/11/27 08:10:40;;;;;;;12.98;7.30;;;;;;;-1.30;66.47;101613.38;5037004;28;20052;-60
2022/11/27 08:13:05;;;;;;;11.10;6.82;;;;;;;-1.24;66.46;101615.09;5045337;28;20050;-59
2022/11/27 08:15:31;;;;;;;14.52;7.00;;;;;;;-1.19;66.06;101616.00;5036984;28;20028;-59
2022/11/27 08:17:57;;;;;;;11.82;7.38;;;;;;;-0.99;66.09;101607.13;5039037;28;20037;-61
2022/11/27 08:20:23;;;;;;;13.88;7.22;;;;;;;-1.06;66.43;101601.91;5043613;28;20103;-61
2022/11/27 08:22:49;;;;;;;13.70;7.70;;;;;;;-0.96;65.98;101594.00;5040164;28;20044;-56
2022/11/27 08:25:14;;;;;;;12.77;7.05;;;;;;;-0.82;66.10;101607.09;5040018;28;20029;-56
2022/11/27 08:27:40;;;;;;;12.05;7.88;;;;;;;-0.73;65.77;101602.63;5039825;28;20029;-58
2022/11/27 08:30:07;;;;;;;12.10;7.30;;;;;;;-0.80;65.69;101598.28;5044537;28;20044;-62
2022/11/27 08:32:32;;;;;;;13.25;7.47;;;;;;;-0.61;65.19;101600.84;5043716;28;20041;-61
2022/11/27 08:34:58;;;;;;;13.80;7.47;;;;;;;-0.61;65.32;101596.44;5038983;28;20835;-60
2022/11/27 08:37:23;;;;;;;11.07;6.53;;;;;;;-0.43;64.69;101607.75;5047701;28;20051;-60
2022/11/27 08:39:49;;;;;;;14.85;7.88;;;;;;;-0.55;65.06;101589.41;5043880;28;20025;-60
2022/11/27 08:42:14;;;;;;;12.43;7.05;;;;;;;-0.42;65.03;101603.38;5039578;28;20041;-62
2022/11/27 08:44:40;;;;;;;12.50;7.72;;;;;;;-0.47;65.01;101608.66;5048444;28;20029;-62
2022/11/27 08:47:05;;;;;;;13.60;7.63;;;;;;;-0.44;65.03;101599.00;5054775;28;20076;-57
2022/11/27 08:49:31;;;;;;;13.02;6.38;;;;;;;-0.41;65.11;101605.13;5053463;28;20073;-59
2022/11/27 08:51:56;;;;;;;13.73;7.40;;;;;;;-0.32;64.76;101602.41;5055373;28;20040;-60
2022/11/27 08:54:22;;;;;;;10.85;5.95;;;;;;;-0.32;64.75;101603.31;5055642;28;20033;-57
2022/11/27 08:56:47;;;;;;;12.68;7.15;;;;;;;-0.35;63.88;101581.38;5040442;28;20030;-55
2022/11/27 08:59:13;;;;;;;12.73;7.68;;;;;;;-0.22;64.44;101613.75;5044785;28;20065;-59
2022/11/27 09:01:38;;;;;;;15.23;7.47;;;;;;;-0.35;64.24;101605.97;5040927;28;20448;-60
2022/11/27 09:04:04;;;;;;;11.90;7.65;;;;;;;-0.24;64.29;101599.72;5037687;28;20040;-61
2022/11/27 09:06:32;;;;;;;13.43;7.43;;;;;;;-0.30;64.19;101603.28;5035652;28;20116;-53
2022/11/27 09:09:03;;;;;;;12.00;6.35;;;;;;;-0.08;63.50;101629.44;5040227;28;20037;-60
2022/11/27 09:11:30;;;;;;;12.48;6.95;;;;;;;-0.16;63.36;101598.78;5043233;28;20032;-56
2022/11/27 09:13:58;;;;;;;13.85;6.72;;;;;;;-0.30;64.04;101596.25;5055307;28;20029;-58
2022/11/27 09:16:24;;;;;;;12.98;7.55;;;;;;;-0.37;64.27;101593.69;5048475;28;20107;-54
2022/11/27 09:18:51;;;;;;;11.77;7.13;;;;;;;-0.34;64.52;101591.03;5034820;28;20030;-54
2022/11/27 09:21:19;;;;;;;14.50;7.05;;;;;;;-0.23;64.13;101606.75;5038969;28;20041;-53
2022/11/27 09:23:44;;;;;;;12.40;6.05;;;;;;;-0.05;63.40;101603.09;5051587;28;20090;-56
2022/11/27 09:26:15;;;;;;;12.95;7.43;;;;;;;-0.15;64.51;101590.00;5039291;28;20317;-54
2022/11/27 09:28:42;;;;;;;10.52;7.15;;;;;;;-0.18;63.96;101597.94;5037885;28;20052;-56
2022/11/27 09:31:10;;;;;;;12.85;7.13;;;;;;;-0.05;63.56;101592.56;5034642;28;20053;-53
2022/11/27 09:33:37;;;;;;;12.02;6.70;;;;;;;0.01;63.34;101591.66;5036600;28;20064;-56
2022/11/27 09:36:15;;;;;;;11.45;7.28;;;;;;;-0.02;63.63;101598.69;5044220;28;20086;-56
2022/11/27 09:38:41;;;;;;;11.88;6.88;;;;;;;-0.02;63.76;101603.06;5048569;28;20499;-56
2022/11/27 09:41:10;;;;;;;11.38;6.55;;;;;;;-0.01;63.45;101607.44;5052251;28;20403;-52
2022/11/27 09:43:43;;;;;;;13.43;7.20;;;;;;;-0.03;63.69;101607.47;5034813;28;20037;-56
2022/11/27 09:46:16;;;;;;;11.70;6.80;;;;;;;-0.07;63.35;101592.59;5045586;28;20425;-56
2022/11/27 09:48:47;;;;;;;12.30;7.07;;;;;;;-0.03;63.65;101596.06;5040920;28;20053;-56
2022/11/27 09:51:25;;;;;;;14.93;5.63;;;;;;;-0.04;63.97;101599.56;5040588;28;20037;-57
2022/11/27 09:54:03;;;;;;;12.05;6.63;;;;;;;-0.09;63.52;101604.00;5049161;28;20111;-58
2022/11/27 09:56:31;;;;;;;10.32;6.63;;;;;;;-0.15;63.87;101600.53;5043544;28;20057;-56
2022/11/27 09:58:58;;;;;;;12.43;7.53;;;;;;;-0.23;64.15;101591.84;5037971;28;20103;-56
2022/11/27 10:01:28;;;;;;;11.18;6.22;;;;;;;-0.04;63.46;101596.94;5038836;28;20415;-61
2022/11/27 10:03:54;;;;;;;11.88;7.03;;;;;;;-0.03;63.09;101599.56;5053431;28;20048;-59
2022/11/27 10:06:31;;;;;;;13.13;7.07;;;;;;;-0.03;63.21;101607.47;5053270;28;20091;-56
2022/11/27 10:09:26;;;;;;;11.63;6.63;;;;;;;-0.31;63.73;101567.31;5050241;28;20116;-57
2022/11/27 10:12:30;;;;;;;10.60;7.13;;;;;;;-0.16;64.15;101600.53;5044162;28;20026;-56
2022/11/27 10:15:03;;;;;;;12.90;7.32;;;;;;;-0.53;63.95;101530.63;5046422;28;20261;-56
2022/11/27 10:17:51;;;;;;;12.38;7.22;;;;;;;-0.03;64.38;101598.69;5037706;28;20025;-57
2022/11/27 10:20:34;;;;;;;9.18;5.78;;;;;;;0.26;62.82;101608.13;5050021;28;20443;-54
2022/11/27 10:22:59;;;;;;;11.13;6.90;;;;;;;0.23;62.80;101602.84;5045661;28;20038;-59
2022/11/27 10:25:39;;;;;;;13.95;6.22;;;;;;;0.33;62.78;101606.28;5038692;28;20328;-61
2022/11/27 10:28:45;;;;;;;12.73;7.60;;;;;;;0.25;62.91;101614.28;5052122;28;20093;-59
2022/11/27 10:31:18;;;;;;;13.30;7.63;;;;;;;0.34;62.46;101610.66;5045886;28;20391;-60
2022/11/27 10:33:46;;;;;;;16.75;8.98;;;;;;;0.21;62.75;101605.53;5032872;28;20381;-62
2022/11/27 10:36:20;;;;;;;15.95;7.60;;;;;;;0.46;61.91;101604.41;5041172;28;20060;-62
2022/11/27 10:38:47;;;;;;;12.98;8.63;;;;;;;0.32;62.11;101618.59;5039039;28;20376;-61
2022/11/27 10:41:15;;;;;;;13.43;8.30;;;;;;;0.30;62.23;101594.03;5047180;28;20124;-58
2022/11/27 10:43:41;;;;;;;11.70;7.07;;;;;;;0.28;62.28;101590.53;5052739;28;20083;-59
2022/11/27 10:46:14;;;;;;;15.10;9.32;;;;;;;0.32;62.42;101592.25;5052944;28;20041;-55
2022/11/27 10:48:41;;;;;;;14.05;8.75;;;;;;;0.37;62.57;101594.84;5046549;28;20037;-54
2022/11/27 10:51:17;;;;;;;14.73;9.02;;;;;;;0.52;62.38;101596.47;5033743;28;20041;-54
2022/11/27 10:53:47;;;;;;;17.13;9.98;;;;;;;0.55;61.92;101602.56;5031791;28;20124;-57
2022/11/27 10:56:14;;;;;;;16.92;9.23;;;;;;;0.62;61.79;101600.75;5032755;28;20045;-56
2022/11/27 10:58:56;;;;;;;15.27;8.85;;;;;;;0.76;61.88;101603.22;5032927;28;20033;-53
2022/11/27 11:01:23;;;;;;;17.42;9.02;;;;;;;0.60;60.76;101568.25;5033692;28;20068;-54
2022/11/27 11:03:49;;;;;;;18.58;10.38;;;;;;;0.56;61.74;101600.81;5050461;28;20379;-57
2022/11/27 11:06:24;;;;;;;15.27;9.00;;;;;;;0.63;61.50;101610.38;5032773;28;20145;-55
2022/11/27 11:09:11;;;;;;;16.48;8.65;;;;;;;0.69;61.02;101604.19;5032921;28;20137;-53
2022/11/27 11:11:36;;;;;;;13.85;7.82;;;;;;;0.34;61.41;101606.28;5031834;28;20041;-55
2022/11/27 11:14:02;;;;;;;17.30;10.07;;;;;;;0.17;61.92;101601.19;5044841;28;20041;-54
2022/11/27 11:16:29;;;;;;;16.48;9.98;;;;;;;0.09;62.30;101609.13;5050359;28;20094;-55
2022/11/27 11:18:56;;;;;;;13.88;9.05;;;;;;;0.13;62.01;101610.00;5052722;28;20102;-58
2022/11/27 11:21:29;;;;;;;16.73;10.05;;;;;;;0.01;62.26;101608.34;5035263;28;20041;-50
2022/11/27 11:24:04;;;;;;;16.73;10.45;;;;;;;-0.30;63.68;101574.31;5032259;28;20508;-53
2022/11/27 11:26:39;;;;;;;18.65;10.18;;;;;;;0.02;62.90;101604.81;5042585;28;20044;-51
2022/11/27 11:29:19;;;;;;;18.13;9.95;;;;;;;0.02;62.75;101611.81;5052730;28;20450;-55